Time;durP1;ratioP1;P1;durP2;ratioP2;P2;SDS_P1;SDS_P2;PMS_P1;PMS_P2;Temp;Humidity;BMP_temperature;BMP_pressure;BME280_temperature;BME280_humidity;BME280_pressure;Samples;Min_cycle;Max_cycle;Signal;HPM_P1;HPM_P2
2021/08/23 00:00:41;;;;;;;;;;;;;;;;;;2083029;28;99990;-21
2021/08/23 00:01:42;;;;;;;;;;;;;;;;;;2083490;28;99888;-23
2021/08/23 00:02:43;;;;;;;;;;;;;;;;;;2082928;28;100562;-21
2021/08/23 00:03:44;;;;;;;;;;;;;;;;;;2083296;28;100128;-21
2021/08/23 00:04:45;;;;;;;;;;;;;;;;;;2082942;28;100059;-22
2021/08/23 00:05:45;;;;;;;;;;;;;;;;;;2083250;28;99943;-23
2021/08/23 00:06:46;;;;;;;;;;;;;;;;;;2074176;28;100072;-22
2021/08/23 00:07:47;;;;;;;;;;;;;;;;;;2073774;28;99997;-20
2021/08/23 00:08:48;;;;;;;;;;;;;;;;;;2082736;28;100019;-20
2021/08/23 00:09:50;;;;;;;;;;;;;;;;;;2083043;28;99984;-23
2021/08/23 00:10:51;;;;;;;;;;;;;;;;;;2082732;28;100059;-22
2021/08/23 00:11:52;;;;;;;;;;;;;;;;;;2083066;28;99877;-20
2021/08/23 00:12:53;;;;;;;;;;;;;;;;;;2082964;28;99969;-21
2021/08/23 00:13:54;;;;;;;;;;;;;;;;;;2083175;28;100019;-20
2021/08/23 00:14:54;;;;;;;;;;;;;;;;;;2074051;28;99953;-20
2021/08/23 00:15:55;;;;;;;;;;;;;;;;;;2074180;28;99979;-21
2021/08/23 00:16:56;;;;;;;;;;;;;;;;;;2083166;28;100240;-20
2021/08/23 00:17:57;;;;;;;;;;;;;;;;;;2082396;28;99961;-20
2021/08/23 00:18:57;;;;;;;;;;;;;;;;;;2082940;28;99981;-23
2021/08/23 00:19:58;;;;;;;;;;;;;;;;;;2082768;28;100084;-21
2021/08/23 00:21:02;;;;;;;;;;;;;;;;;;2083215;28;100007;-23
2021/08/23 00:22:19;;;;;;;;;;;;;;;;;;2082848;28;100124;-22
2021/08/23 00:23:23;;;;;;;;;;;;;;;;;;2065872;28;100055;-20
2021/08/23 00:24:24;;;;;;;;;;;;;;;;;;2065934;28;100087;-21
2021/08/23 00:25:24;;;;;;;;;;;;;;;;;;2074420;28;99887;-22
2021/08/23 00:26:28;;;;;;;;;;;;;;;;;;2065661;28;100085;-21
2021/08/23 00:27:35;;;;;;;;;;;;;;;;;;2058306;28;100518;-23
2021/08/23 00:28:42;;;;;;;;;;;;;;;;;;2067528;28;100065;-23
2021/08/23 00:29:46;;;;;;;;;;;;;;;;;;2074360;28;100207;-22
2021/08/23 00:30:47;;;;;;;;;;;;;;;;;;2074744;28;100480;-23
2021/08/23 00:31:48;;;;;;;;;;;;;;;;;;2065660;28;100401;-19
2021/08/23 00:32:49;;;;;;;;;;;;;;;;;;2065742;28;100130;-22
2021/08/23 00:33:49;;;;;;;;;;;;;;;;;;2079991;28;100086;-23
2021/08/23 08:47:34;;;;;;;12.30;4.57;;;;;;;;;;2106920;27;100001;-18
2021/08/23 08:48:44;;;;;;;17.15;4.55;;;;;;;;;;2105870;27;100097;-21
2021/08/23 08:49:47;;;;;;;10.70;4.32;;;;;;;;;;2105778;27;100073;-18
2021/08/23 08:50:49;;;;;;;12.95;4.55;;;;;;;;;;2105912;27;100157;-20
2021/08/23 08:51:51;;;;;;;11.43;4.55;;;;;;;;;;2105737;27;100034;-20
2021/08/23 08:52:52;;;;;;;12.43;4.18;;;;;;;;;;2106081;27;99960;-20
2021/08/23 08:53:53;;;;;;;6.88;3.80;;;;;;;;;;2104651;27;100172;-18
2021/08/23 08:54:55;;;;;;;11.75;4.35;;;;;;;;;;2079529;27;99986;-19
2021/08/23 08:55:56;;;;;;;9.90;4.03;;;;;;;;;;2079855;27;100350;-20
2021/08/23 08:57:00;;;;;;;7.88;4.22;;;;;;;;;;2086996;27;100118;-23
2021/08/23 08:58:05;;;;;;;11.23;4.25;;;;;;;;;;2082536;27;100153;-17
2021/08/23 08:59:06;;;;;;;7.25;3.17;;;;;;;;;;2097374;27;100178;-19
2021/08/23 09:00:09;;;;;;;12.80;4.15;;;;;;;;;;2097764;27;100546;-20
2021/08/23 09:01:12;;;;;;;12.00;4.32;;;;;;;;;;2088472;27;99953;-20
2021/08/23 09:02:13;;;;;;;11.73;3.88;;;;;;;;;;2088714;27;99809;-21
2021/08/23 09:03:24;;;;;;;9.57;3.90;;;;;;;;;;2097396;27;99967;-18
2021/08/23 09:04:29;;;;;;;8.05;3.72;;;;;;;;;;2096683;27;100119;-17
2021/08/23 09:05:48;;;;;;;10.18;3.83;;;;;;;;;;2097060;27;99900;-20
2021/08/23 09:06:54;;;;;;;11.48;4.40;;;;;;;;;;2097489;27;99819;-17
2021/08/23 09:07:54;;;;;;;9.40;3.90;;;;;;;;;;2097614;27;100040;-19
2021/08/23 09:08:55;;;;;;;;;;;;;;;;;;2097909;27;100030;-20
2021/08/23 09:09:56;;;;;;;11.73;4.32;;;;;;;;;;2097367;27;100177;-17
2021/08/23 09:11:09;;;;;;;;;;;;;;;;;;2098255;27;99960;-16
2021/08/23 09:12:13;;;;;;;9.45;4.10;;;;;;;;;;2097659;27;99893;-20
2021/08/23 09:13:14;;;;;;;11.20;4.22;;;;;;;;;;2097652;27;100008;-19
2021/08/23 09:14:14;;;;;;;;;;;;;;;;;;2097869;27;99978;-20
2021/08/23 09:15:17;;;;;;;10.47;3.93;;;;;;;;;;2097684;27;100142;-19
2021/08/23 09:16:25;;;;;;;12.13;4.15;;;;;;;;;;2097561;27;100059;-20
2021/08/23 09:17:26;;;;;;;12.60;3.58;;;;;;;;;;2097639;27;100164;-19
2021/08/23 09:18:28;;;;;;;14.35;4.63;;;;;;;;;;2096876;27;99997;-19
2021/08/23 09:19:29;;;;;;;13.10;3.85;;;;;;;;;;2096844;27;100003;-19
2021/08/23 09:20:30;;;;;;;13.90;4.85;;;;;;;;;;2097511;27;99910;-20
2021/08/23 09:21:34;;;;;;;12.57;3.95;;;;;;;;;;2097228;27;99914;-19
2021/08/23 09:22:34;;;;;;;7.45;3.78;;;;;;;;;;2097949;27;99916;-18
2021/08/23 09:23:35;;;;;;;;;;;;;;;;;;2097109;27;100129;-21
2021/08/23 09:24:39;;;;;;;10.27;4.30;;;;;;;;;;2097434;27;99904;-20
2021/08/23 09:25:41;;;;;;;8.98;4.07;;;;;;;;;;2097265;27;100153;-18
2021/08/23 09:26:42;;;;;;;10.52;4.20;;;;;;;;;;2097254;27;99909;-19
2021/08/23 09:27:43;;;;;;;;;;;;;;;;;;2097274;27;99906;-19
2021/08/23 09:28:59;;;;;;;10.68;3.95;;;;;;;;;;2088486;27;99990;-19
2021/08/23 09:30:01;;;;;;;10.57;3.85;;;;;;;;;;2096826;27;99952;-19
2021/08/23 09:31:03;;;;;;;10.10;3.60;;;;;;;;;;2097594;27;99920;-21
2021/08/23 09:32:04;;;;;;;5.65;3.70;;;;;;;;;;2096377;27;99987;-18
2021/08/23 09:33:06;;;;;;;11.00;4.38;;;;;;;;;;2097204;27;99931;-18
2021/08/23 09:34:09;;;;;;;13.20;4.13;;;;;;;;;;2097342;27;99881;-19
2021/08/23 09:35:11;;;;;;;8.00;3.70;;;;;;;;;;2097515;27;99873;-19
2021/08/23 09:36:19;;;;;;;8.85;3.70;;;;;;;;;;2097573;27;99932;-19
2021/08/23 09:37:23;;;;;;;6.68;3.80;;;;;;;;;;2097339;27;99997;-18
2021/08/23 09:38:24;;;;;;;8.88;4.40;;;;;;;;;;2097489;27;100056;-20
2021/08/23 09:39:26;;;;;;;;;;;;;;;;;;2098180;27;99954;-19
2021/08/23 09:40:31;;;;;;;6.57;4.05;;;;;;;;;;2097368;27;100015;-21
2021/08/23 09:41:36;;;;;;;9.18;3.55;;;;;;;;;;2097497;27;99905;-21
2021/08/23 09:42:37;;;;;;;11.13;4.50;;;;;;;;;;2097115;27;100094;-20
2021/08/23 09:43:38;;;;;;;9.73;4.00;;;;;;;;;;2097511;27;100047;-19
2021/08/23 09:44:40;;;;;;;11.05;3.97;;;;;;;;;;2097440;27;100024;-22
2021/08/23 09:45:48;;;;;;;11.88;3.97;;;;;;;;;;2097546;27;99973;-21
2021/08/23 09:46:57;;;;;;;12.68;3.90;;;;;;;;;;2097051;27;100041;-20
2021/08/23 09:48:03;;;;;;;7.32;3.75;;;;;;;;;;2094473;27;99971;-17
2021/08/23 09:49:06;;;;;;;10.70;3.75;;;;;;;;;;2091671;27;100292;-21
2021/08/23 09:50:17;;;;;;;12.65;3.97;;;;;;;;;;2091306;27;100008;-18
2021/08/23 09:51:27;;;;;;;8.55;4.00;;;;;;;;;;2091831;27;100022;-21
2021/08/23 09:52:34;;;;;;;7.28;3.40;;;;;;;;;;2091537;27;99994;-18
2021/08/23 09:53:35;;;;;;;8.32;3.85;;;;;;;;;;2091830;27;100035;-22
2021/08/23 09:54:36;;;;;;;;;;;;;;;;;;2091981;27;99981;-19
2021/08/23 09:55:42;;;;;;;9.35;3.40;;;;;;;;;;2091646;27;100035;-18
2021/08/23 09:56:53;;;;;;;8.55;3.67;;;;;;;;;;2107837;27;100438;-20
2021/08/23 09:57:54;;;;;;;6.82;3.72;;;;;;;;;;2097968;27;100158;-21
2021/08/23 09:58:55;;;;;;;10.65;4.10;;;;;;;;;;2090281;27;100719;-18
2021/08/23 09:59:56;;;;;;;11.60;3.60;;;;;;;;;;2091750;27;99946;-20
2021/08/23 10:00:57;;;;;;;7.60;4.03;;;;;;;;;;2091648;27;99902;-21
2021/08/23 10:02:02;;;;;;;10.27;4.10;;;;;;;;;;2091082;27;100154;-19
2021/08/23 10:03:12;;;;;;;14.95;4.70;;;;;;;;;;2090894;27;100055;-21
2021/08/23 10:04:15;;;;;;;10.93;3.70;;;;;;;;;;2091521;27;99905;-22
2021/08/23 10:05:18;;;;;;;11.60;3.90;;;;;;;;;;2091052;27;100119;-22
2021/08/23 10:06:20;;;;;;;9.50;3.30;;;;;;;;;;2091517;27;99927;-19
2021/08/23 10:07:22;;;;;;;6.28;3.28;;;;;;;;;;2091493;27;99831;-19
2021/08/23 10:08:25;;;;;;;7.72;4.30;;;;;;;;;;2091799;27;99769;-21
2021/08/23 10:09:27;;;;;;;7.35;4.00;;;;;;;;;;2091220;27;99934;-21
2021/08/23 10:10:28;;;;;;;11.52;4.13;;;;;;;;;;2091847;27;100080;-18
2021/08/23 10:11:31;;;;;;;;;;;;;;;;;;2091612;27;99968;-21
2021/08/23 10:12:32;;;;;;;5.18;3.72;;;;;;;;;;2091832;27;99900;-20
2021/08/23 10:13:35;;;;;;;8.57;3.83;;;;;;;;;;2091422;27;99876;-21
2021/08/23 10:14:36;;;;;;;8.05;4.10;;;;;;;;;;2091602;27;99922;-20
2021/08/23 10:15:38;;;;;;;6.07;3.60;;;;;;;;;;2091154;27;99923;-21
2021/08/23 10:16:39;;;;;;;11.65;3.58;;;;;;;;;;2091487;27;99855;-22
2021/08/23 10:17:41;;;;;;;7.03;3.60;;;;;;;;;;2090954;27;100083;-18
2021/08/23 10:18:42;;;;;;;8.98;3.63;;;;;;;;;;2095651;27;100015;-21
2021/08/23 10:19:44;;;;;;;5.72;3.45;;;;;;;;;;2090568;27;99992;-21
2021/08/23 10:20:45;;;;;;;6.13;3.58;;;;;;;;;;2095401;27;102435;-19
2021/08/23 10:21:49;;;;;;;8.80;3.60;;;;;;;;;;2098826;27;100197;-19
2021/08/23 10:22:50;;;;;;;8.93;4.45;;;;;;;;;;2098978;27;99993;-20
2021/08/23 10:23:54;;;;;;;7.40;3.50;;;;;;;;;;2099606;27;99829;-19
2021/08/23 10:24:55;;;;;;;7.18;3.33;;;;;;;;;;2099713;27;99954;-21
2021/08/23 10:25:57;;;;;;;9.75;3.78;;;;;;;;;;2099292;27;100604;-19
2021/08/23 10:26:58;;;;;;;7.50;3.70;;;;;;;;;;2099291;27;99984;-19
2021/08/23 10:28:20;;;;;;;7.68;3.55;;;;;;;;;;2099873;27;100104;-19
2021/08/23 10:29:21;;;;;;;5.50;3.38;;;;;;;;;;2099472;27;99942;-20
2021/08/23 10:30:26;;;;;;;8.30;3.58;;;;;;;;;;2099209;27;100033;-20
2021/08/23 10:31:35;;;;;;;8.45;3.50;;;;;;;;;;2099862;27;99995;-21
2021/08/23 10:32:41;;;;;;;4.72;3.25;;;;;;;;;;2099600;27;99882;-22
2021/08/23 10:33:43;;;;;;;6.25;3.60;;;;;;;;;;2099362;27;100117;-20
2021/08/23 10:34:44;;;;;;;5.57;3.72;;;;;;;;;;2099493;27;99959;-20
2021/08/23 10:35:48;;;;;;;7.78;3.47;;;;;;;;;;2099359;27;100021;-20
2021/08/23 10:36:50;;;;;;;7.80;3.90;;;;;;;;;;2098287;27;100015;-19
2021/08/23 10:37:53;;;;;;;5.85;3.63;;;;;;;;;;2098107;27;99953;-22
2021/08/23 10:39:02;;;;;;;7.25;3.85;;;;;;;;;;2098913;27;100104;-21
2021/08/23 10:40:03;;;;;;;7.25;3.70;;;;;;;;;;2098822;27;100139;-19
2021/08/23 10:41:07;;;;;;;10.27;3.88;;;;;;;;;;2099206;27;99980;-20
2021/08/23 10:42:13;;;;;;;8.98;4.03;;;;;;;;;;2099421;27;100446;-18
2021/08/23 10:43:23;;;;;;;6.93;3.42;;;;;;;;;;2098878;27;100198;-17
2021/08/23 10:44:27;;;;;;;6.10;3.47;;;;;;;;;;2098773;27;100159;-22
2021/08/23 10:45:37;;;;;;;7.57;3.80;;;;;;;;;;2099873;27;99930;-18
2021/08/23 10:46:40;;;;;;;5.97;3.60;;;;;;;;;;2099125;27;100046;-20
2021/08/23 10:47:42;;;;;;;11.40;4.32;;;;;;;;;;2099773;27;99856;-19
2021/08/23 10:48:47;;;;;;;11.18;3.95;;;;;;;;;;2098773;27;99881;-19
2021/08/23 10:49:49;;;;;;;10.65;4.03;;;;;;;;;;2099016;27;99993;-20
2021/08/23 10:51:00;;;;;;;;;;;;;;;;;;2099223;27;99943;-20
2021/08/23 10:52:02;;;;;;;9.07;3.58;;;;;;;;;;2097547;27;100187;-18
2021/08/23 10:53:11;;;;;;;10.38;3.50;;;;;;;;;;2090564;27;99984;-19
2021/08/23 10:54:24;;;;;;;6.50;3.65;;;;;;;;;;2091059;27;99988;-19
2021/08/23 10:55:31;;;;;;;10.30;3.78;;;;;;;;;;2090662;27;99976;-21
2021/08/23 10:56:38;;;;;;;9.10;3.33;;;;;;;;;;2090260;27;100034;-19
2021/08/23 10:57:39;;;;;;;5.65;3.33;;;;;;;;;;2089813;27;100094;-19
2021/08/23 10:58:40;;;;;;;;;;;;;;;;;;2091375;27;99867;-18
2021/08/23 10:59:49;;;;;;;6.43;3.70;;;;;;;;;;2088742;27;99959;-20
2021/08/23 11:00:50;;;;;;;7.15;3.60;;;;;;;;;;2089939;27;100462;-20
2021/08/23 11:01:53;;;;;;;7.03;3.58;;;;;;;;;;2090663;27;100005;-19
2021/08/23 11:02:58;;;;;;;7.40;3.92;;;;;;;;;;2090956;27;99894;-19
2021/08/23 11:04:04;;;;;;;8.18;4.20;;;;;;;;;;2090747;27;100083;-24
2021/08/23 11:05:19;;;;;;;7.75;4.03;;;;;;;;;;2090655;27;99994;-20
2021/08/23 11:06:20;;;;;;;10.77;3.45;;;;;;;;;;2090612;27;99953;-17
2021/08/23 11:07:29;;;;;;;9.00;3.60;;;;;;;;;;2090994;27;100043;-18
2021/08/23 11:08:30;;;;;;;11.02;3.38;;;;;;;;;;2093433;27;99880;-20
2021/08/23 11:09:36;;;;;;;;;;;;;;;;;;2083893;27;103188;-20
2021/08/23 11:10:39;;;;;;;6.65;3.80;;;;;;;;;;2090061;27;100288;-20
2021/08/23 11:11:40;;;;;;;8.23;3.67;;;;;;;;;;2090304;27;100101;-19
2021/08/23 11:12:55;;;;;;;7.28;3.85;;;;;;;;;;2090454;27;99975;-20
2021/08/23 11:13:56;;;;;;;10.55;3.70;;;;;;;;;;2090342;27;99932;-20
2021/08/23 11:14:57;;;;;;;;;;;;;;;;;;2091142;27;100097;-19
2021/08/23 11:16:06;;;;;;;9.20;3.33;;;;;;;;;;2089887;27;100433;-19
2021/08/23 11:17:07;;;;;;;9.18;3.60;;;;;;;;;;2090860;27;100096;-21
2021/08/23 11:18:13;;;;;;;6.45;4.10;;;;;;;;;;2098161;27;100159;-19
2021/08/23 11:19:15;;;;;;;8.50;3.88;;;;;;;;;;2090716;27;100602;-19
2021/08/23 11:20:26;;;;;;;7.85;3.55;;;;;;;;;;2106748;27;100109;-19
2021/08/23 11:21:27;;;;;;;6.30;3.63;;;;;;;;;;2104090;27;100019;-18
2021/08/23 11:22:27;;;;;;;;;;;;;;;;;;2090808;27;100240;-20
2021/08/23 11:23:28;;;;;;;8.82;3.78;;;;;;;;;;2090611;27;99961;-20
2021/08/23 11:24:31;;;;;;;7.20;3.53;;;;;;;;;;2089388;27;99991;-20
2021/08/23 11:25:44;;;;;;;9.10;3.70;;;;;;;;;;2089686;27;100107;-21
2021/08/23 11:27:00;;;;;;;8.55;3.75;;;;;;;;;;2090688;27;100455;-21
2021/08/23 11:28:04;;;;;;;5.10;3.33;;;;;;;;;;2090358;27;100217;-21
2021/08/23 11:29:09;;;;;;;12.50;3.95;;;;;;;;;;2089817;27;100328;-20
2021/08/23 11:30:11;;;;;;;8.07;3.40;;;;;;;;;;2090277;27;100065;-17
2021/08/23 11:31:11;;;;;;;9.20;3.95;;;;;;;;;;2089428;27;100228;-18
2021/08/23 11:32:12;;;;;;;;;;;;;;;;;;2090076;27;99904;-19
2021/08/23 11:33:23;;;;;;;7.30;3.70;;;;;;;;;;2090293;27;99891;-19
2021/08/23 11:34:26;;;;;;;9.38;3.92;;;;;;;;;;2090212;27;99997;-17
2021/08/23 11:35:27;;;;;;;11.07;3.90;;;;;;;;;;2106328;27;100029;-20
2021/08/23 11:36:32;;;;;;;7.57;3.33;;;;;;;;;;2102294;27;100241;-20
2021/08/23 11:37:33;;;;;;;7.40;3.30;;;;;;;;;;2094697;27;101043;-17
2021/08/23 11:38:35;;;;;;;;;;;;;;;;;;2084524;27;99998;-20
2021/08/23 11:39:36;;;;;;;9.65;3.50;;;;;;;;;;2082245;28;100299;-18
2021/08/23 11:40:40;;;;;;;9.05;3.63;;;;;;;;;;2081677;27;100348;-18
2021/08/23 11:41:41;;;;;;;9.82;3.80;;;;;;;;;;2079614;28;100159;-21
2021/08/23 11:42:42;;;;;;;;;;;;;;;;;;2089826;27;99981;-19
2021/08/23 11:43:44;;;;;;;9.65;3.53;;;;;;;;;;2100826;27;100428;-18
2021/08/23 11:44:48;;;;;;;13.68;4.40;;;;;;;;;;2086288;27;100022;-20
2021/08/23 11:45:51;;;;;;;8.13;3.95;;;;;;;;;;2090315;27;100090;-21
2021/08/23 11:47:03;;;;;;;8.90;3.42;;;;;;;;;;2089218;27;101434;-18
2021/08/23 11:48:05;;;;;;;8.77;3.45;;;;;;;;;;2098068;27;100042;-17
2021/08/23 11:49:06;;;;;;;10.45;4.00;;;;;;;;;;2100684;27;100333;-18
2021/08/23 11:50:07;;;;;;;10.48;3.25;;;;;;;;;;2089448;27;100034;-21
2021/08/23 11:51:08;;;;;;;11.10;3.67;;;;;;;;;;2081381;28;100024;-20
2021/08/23 11:52:13;;;;;;;;;;;;;;;;;;2082324;27;100121;-19
2021/08/23 11:53:14;;;;;;;11.60;3.65;;;;;;;;;;2084337;27;99932;-20
2021/08/23 11:54:17;;;;;;;10.77;3.85;;;;;;;;;;2081889;28;100015;-18
2021/08/23 11:55:26;;;;;;;13.45;4.00;;;;;;;;;;2080819;27;99994;-20
2021/08/23 11:56:27;;;;;;;9.50;4.20;;;;;;;;;;2081232;27;100008;-18
2021/08/23 11:57:28;;;;;;;6.38;3.40;;;;;;;;;;2080896;28;100042;-18
2021/08/23 11:58:36;;;;;;;7.13;3.72;;;;;;;;;;2081122;27;100124;-21
2021/08/23 11:59:37;;;;;;;5.38;3.67;;;;;;;;;;2088162;27;102170;-17
2021/08/23 12:00:39;;;;;;;;;;;;;;;;;;2090058;27;100096;-18
2021/08/23 12:01:40;;;;;;;7.82;3.53;;;;;;;;;;2086650;27;100345;-18
2021/08/23 12:02:41;;;;;;;8.80;3.45;;;;;;;;;;2092396;27;100184;-20
2021/08/23 12:03:42;;;;;;;;;;;;;;;;;;2081207;27;100100;-21
2021/08/23 12:04:43;;;;;;;;;;;;;;;;;;2081939;27;99923;-20
2021/08/23 12:05:47;;;;;;;6.75;3.35;;;;;;;;;;2087125;27;100025;-19
2021/08/23 12:06:57;;;;;;;9.05;3.67;;;;;;;;;;2090200;27;99997;-17
2021/08/23 12:07:58;;;;;;;9.93;3.83;;;;;;;;;;2090299;27;100374;-17
2021/08/23 12:08:59;;;;;;;;;;;;;;;;;;2090727;27;100119;-19
2021/08/23 12:10:00;;;;;;;10.18;3.70;;;;;;;;;;2090309;27;100234;-17
2021/08/23 12:11:17;;;;;;;5.68;3.50;;;;;;;;;;2090195;27;99967;-19
2021/08/23 12:12:22;;;;;;;7.32;3.50;;;;;;;;;;2106554;27;99990;-20
2021/08/23 12:13:34;;;;;;;10.35;3.40;;;;;;;;;;2105529;27;101768;-21
2021/08/23 12:14:35;;;;;;;10.00;3.70;;;;;;;;;;2089486;27;99886;-18
2021/08/23 12:15:37;;;;;;;;;;;;;;;;;;2090218;27;100039;-20
2021/08/23 12:16:38;;;;;;;11.07;3.90;;;;;;;;;;2089798;27;100037;-19
2021/08/23 12:17:39;;;;;;;6.40;3.55;;;;;;;;;;2090983;27;100138;-19
2021/08/23 12:18:40;;;;;;;;;;;;;;;;;;2098433;27;99850;-21
2021/08/23 12:19:41;;;;;;;11.07;3.60;;;;;;;;;;2094683;27;99919;-20
2021/08/23 12:20:42;;;;;;;8.07;3.25;;;;;;;;;;2089955;27;99924;-20
2021/08/23 12:21:46;;;;;;;11.32;3.90;;;;;;;;;;2093480;27;100429;-17
2021/08/23 12:22:47;;;;;;;10.02;3.88;;;;;;;;;;2094619;27;100167;-19
2021/08/23 12:23:53;;;;;;;26.83;6.28;;;;;;;;;;2089671;27;100098;-21
2021/08/23 12:25:00;;;;;;;42.83;10.40;;;;;;;;;;2089525;27;99953;-18
2021/08/23 12:26:07;;;;;;;49.17;11.18;;;;;;;;;;2089801;27;100324;-20
2021/08/23 12:27:15;;;;;;;46.63;9.48;;;;;;;;;;2089739;27;99969;-19
2021/08/23 12:28:17;;;;;;;37.88;9.00;;;;;;;;;;2095092;27;99806;-18
2021/08/23 12:29:36;;;;;;;19.95;5.53;;;;;;;;;;2088781;27;100121;-18
2021/08/23 12:30:37;;;;;;;23.38;6.43;;;;;;;;;;2090283;27;100035;-20
2021/08/23 12:31:39;;;;;;;;;;;;;;;;;;2090764;27;99876;-19
2021/08/23 12:32:40;;;;;;;24.67;6.13;;;;;;;;;;2090443;27;99882;-18
2021/08/23 12:33:41;;;;;;;;;;;;;;;;;;2090640;27;99873;-19
2021/08/23 12:34:45;;;;;;;18.02;5.90;;;;;;;;;;2090415;27;100081;-21
2021/08/23 12:35:46;;;;;;;24.38;6.43;;;;;;;;;;2090016;27;99984;-21
2021/08/23 12:36:47;;;;;;;;;;;;;;;;;;2090330;27;100454;-19
2021/08/23 12:37:48;;;;;;;19.95;5.10;;;;;;;;;;2090529;27;99963;-18
2021/08/23 12:38:49;;;;;;;20.40;6.13;;;;;;;;;;2090087;27;99905;-19
2021/08/23 12:39:50;;;;;;;;;;;;;;;;;;2091021;27;99783;-19
2021/08/23 12:40:51;;;;;;;23.10;5.88;;;;;;;;;;2089683;27;99923;-20
2021/08/23 12:41:53;;;;;;;;;;;;;;;;;;2090002;27;100063;-17
2021/08/23 12:42:56;;;;;;;19.50;5.18;;;;;;;;;;2090320;27;100109;-21
2021/08/23 12:43:57;;;;;;;20.60;5.93;;;;;;;;;;2089950;27;99966;-18
2021/08/23 12:44:58;;;;;;;;;;;;;;;;;;2090405;27;100167;-18
2021/08/23 12:45:59;;;;;;;22.27;5.72;;;;;;;;;;2089292;27;99889;-21
2021/08/23 12:47:00;;;;;;;18.35;5.43;;;;;;;;;;2089213;27;100122;-16
2021/08/23 12:48:01;;;;;;;;;;;;;;;;;;2090588;27;100100;-21
2021/08/23 12:49:02;;;;;;;23.75;6.05;;;;;;;;;;2089368;27;100302;-19
2021/08/23 12:50:03;;;;;;;24.67;5.88;;;;;;;;;;2089613;27;100146;-18
2021/08/23 12:51:05;;;;;;;23.05;6.07;;;;;;;;;;2089288;27;100050;-19
2021/08/23 12:52:06;;;;;;;23.15;6.03;;;;;;;;;;2089092;27;99977;-19
2021/08/23 12:53:07;;;;;;;17.73;5.68;;;;;;;;;;2090655;27;100039;-19
2021/08/23 12:54:09;;;;;;;27.92;6.68;;;;;;;;;;2089894;27;100054;-20
2021/08/23 12:55:11;;;;;;;22.20;5.40;;;;;;;;;;2081452;28;100283;-17
2021/08/23 12:56:11;;;;;;;23.23;6.07;;;;;;;;;;2072210;28;99969;-18
2021/08/23 12:57:12;;;;;;;;;;;;;;;;;;2081625;28;99874;-16
2021/08/23 12:58:13;;;;;;;21.92;6.00;;;;;;;;;;2081719;28;99981;-21
2021/08/23 12:59:15;;;;;;;18.70;5.97;;;;;;;;;;2081506;27;100083;-20
2021/08/23 13:00:16;;;;;;;19.70;6.00;;;;;;;;;;2081789;27;100031;-21
2021/08/23 13:01:16;;;;;;;20.02;5.70;;;;;;;;;;2081460;28;99916;-17
2021/08/23 13:02:17;;;;;;;22.20;5.72;;;;;;;;;;2097668;27;100522;-19
2021/08/23 13:03:18;;;;;;;17.98;5.03;;;;;;;;;;2098308;27;100060;-19
2021/08/23 13:04:19;;;;;;;;;;;;;;;;;;2082328;27;99886;-21
2021/08/23 13:05:43;;;;;;;17.90;5.72;;;;;;;;;;2066032;28;99936;-18
2021/08/23 13:06:44;;;;;;;23.55;5.63;;;;;;;;;;2064196;28;99992;-18
2021/08/23 13:07:45;;;;;;;20.25;5.40;;;;;;;;;;2064565;28;100334;-18
2021/08/23 13:08:46;;;;;;;22.25;5.75;;;;;;;;;;2064584;28;100098;-19
2021/08/23 13:09:47;;;;;;;;;;;;;;;;;;2064879;28;99975;-18
2021/08/23 13:10:48;;;;;;;23.90;5.57;;;;;;;;;;2064220;28;99995;-21
2021/08/23 13:11:49;;;;;;;23.75;5.43;;;;;;;;;;2064355;28;100006;-19
2021/08/23 13:12:50;;;;;;;19.83;5.85;;;;;;;;;;2064269;28;99873;-17
2021/08/23 13:13:50;;;;;;;;;;;;;;;;;;2065085;28;99917;-19
2021/08/23 13:14:51;;;;;;;18.90;5.13;;;;;;;;;;2064208;28;99887;-20
2021/08/23 13:15:52;;;;;;;11.85;4.13;;;;;;;;;;2064413;28;100028;-18
2021/08/23 13:16:53;;;;;;;22.08;5.35;;;;;;;;;;2064233;28;99888;-19
2021/08/23 13:17:54;;;;;;;;;;;;;;;;;;2064890;28;100027;-19
2021/08/23 13:18:55;;;;;;;17.65;5.10;;;;;;;;;;2064350;28;99845;-18
2021/08/23 13:19:56;;;;;;;17.48;5.40;;;;;;;;;;2064416;28;99924;-21
2021/08/23 13:20:57;;;;;;;;;;;;;;;;;;2064695;28;99982;-17
2021/08/23 13:22:00;;;;;;;;;;;;;;;;;;2064796;28;99964;-18
2021/08/23 13:23:01;;;;;;;14.85;5.28;;;;;;;;;;2064204;28;100005;-18
2021/08/23 13:24:01;;;;;;;;;;;;;;;;;;2064116;28;100426;-18
2021/08/23 13:25:02;;;;;;;20.98;5.65;;;;;;;;;;2063846;28;100022;-20
2021/08/23 13:26:05;;;;;;;18.75;4.63;;;;;;;;;;2049933;28;99980;-19
2021/08/23 13:27:05;;;;;;;16.88;5.05;;;;;;;;;;2047606;28;100022;-18
2021/08/23 13:28:07;;;;;;;;;;;;;;;;;;2048289;28;100076;-17
2021/08/23 13:29:08;;;;;;;24.13;5.38;;;;;;;;;;2047521;28;100044;-20
2021/08/23 13:30:09;;;;;;;20.27;4.40;;;;;;;;;;2047878;28;100026;-18
2021/08/23 13:31:10;;;;;;;18.80;5.35;;;;;;;;;;2049402;28;100016;-20
2021/08/23 13:32:11;;;;;;;;;;;;;;;;;;2048196;28;99923;-18
2021/08/23 13:33:12;;;;;;;16.52;4.90;;;;;;;;;;2047762;28;99990;-19
2021/08/23 13:34:13;;;;;;;16.65;5.25;;;;;;;;;;2047647;28;99881;-17
2021/08/23 13:35:14;;;;;;;;;;;;;;;;;;2047352;28;100374;-20
2021/08/23 13:36:14;;;;;;;13.45;3.92;;;;;;;;;;2047024;28;100165;-18
2021/08/23 13:37:16;;;;;;;20.05;5.07;;;;;;;;;;2052459;28;100054;-20
2021/08/23 13:38:17;;;;;;;;;;;;;;;;;;2052664;28;100252;-21
2021/08/23 13:39:18;;;;;;;12.20;3.47;;;;;;;;;;2063216;28;100971;-17
2021/08/23 13:40:19;;;;;;;13.70;4.35;;;;;;;;;;2055254;28;100125;-19
2021/08/23 13:41:20;;;;;;;14.10;3.55;;;;;;;;;;2046940;28;100427;-20
2021/08/23 13:42:20;;;;;;;;;;;;;;;;;;2047870;28;100210;-19
2021/08/23 13:43:21;;;;;;;14.73;3.80;;;;;;;;;;2047260;28;100016;-18
2021/08/23 13:44:22;;;;;;;13.07;3.80;;;;;;;;;;2047772;28;100080;-17
2021/08/23 13:45:23;;;;;;;;;;;;;;;;;;2047804;28;100148;-20
2021/08/23 13:46:24;;;;;;;12.70;3.65;;;;;;;;;;2047506;28;100149;-20
2021/08/23 13:47:25;;;;;;;;;;;;;;;;;;2047896;28;100014;-17
2021/08/23 13:48:26;;;;;;;14.10;3.95;;;;;;;;;;2047590;28;100056;-17
2021/08/23 13:49:27;;;;;;;10.98;3.40;;;;;;;;;;2047394;28;99976;-19
2021/08/23 13:50:28;;;;;;;;;;;;;;;;;;2063684;28;100802;-19
2021/08/23 13:51:29;;;;;;;9.18;3.35;;;;;;;;;;2063334;28;100039;-19
2021/08/23 13:52:30;;;;;;;12.38;3.47;;;;;;;;;;2062305;28;100316;-18
2021/08/23 13:53:30;;;;;;;;;;;;;;;;;;2063974;28;100025;-20
2021/08/23 13:54:31;;;;;;;7.35;3.03;;;;;;;;;;2054967;28;100535;-21
2021/08/23 13:55:34;;;;;;;9.27;3.53;;;;;;;;;;2047851;28;100100;-21
2021/08/23 13:56:35;;;;;;;10.63;3.30;;;;;;;;;;2038755;28;100169;-21
2021/08/23 13:57:36;;;;;;;9.88;3.13;;;;;;;;;;2062898;28;100130;-21
2021/08/23 13:58:37;;;;;;;;;;;;;;;;;;2063151;28;101676;-19
2021/08/23 13:59:37;;;;;;;13.15;3.45;;;;;;;;;;2061683;28;100083;-18
2021/08/23 14:00:38;;;;;;;11.65;3.65;;;;;;;;;;2063383;28;100162;-21
2021/08/23 14:01:40;;;;;;;;;;;;;;;;;;2052921;28;99941;-18
2021/08/23 14:02:41;;;;;;;9.23;3.03;;;;;;;;;;2047522;28;100085;-19
2021/08/23 14:03:42;;;;;;;9.93;3.08;;;;;;;;;;2053283;28;99918;-18
2021/08/23 14:04:43;;;;;;;7.97;2.90;;;;;;;;;;2063049;28;100028;-19
2021/08/23 14:05:44;;;;;;;;;;;;;;;;;;2063397;28;99916;-19
2021/08/23 14:06:45;;;;;;;9.30;3.13;;;;;;;;;;2055720;28;99941;-18
2021/08/23 14:07:48;;;;;;;;;;;;;;;;;;2056093;28;100089;-20
2021/08/23 14:08:49;;;;;;;12.98;3.15;;;;;;;;;;2051007;28;100195;-18
2021/08/23 14:09:50;;;;;;;;;;;;;;;;;;2047126;28;100096;-17
2021/08/23 14:10:51;;;;;;;11.77;3.17;;;;;;;;;;2054420;28;100146;-19
2021/08/23 14:11:52;;;;;;;7.35;3.00;;;;;;;;;;2055058;28;100447;-18
2021/08/23 14:12:52;;;;;;;;;;;;;;;;;;2047858;28;99927;-19
2021/08/23 14:13:54;;;;;;;9.48;2.90;;;;;;;;;;2054803;28;99969;-19
2021/08/23 14:14:55;;;;;;;7.00;3.17;;;;;;;;;;2069336;28;100046;-19
2021/08/23 14:15:56;;;;;;;8.32;3.20;;;;;;;;;;2063195;28;99967;-21
2021/08/23 14:16:57;;;;;;;;;;;;;;;;;;2043281;28;100276;-19
2021/08/23 14:17:57;;;;;;;11.23;3.33;;;;;;;;;;2046892;28;100236;-20
2021/08/23 14:18:59;;;;;;;;;;;;;;;;;;2051264;28;100249;-17
2021/08/23 14:20:00;;;;;;;;;;;;;;;;;;2058280;28;100101;-17
2021/08/23 14:21:01;;;;;;;8.60;3.13;;;;;;;;;;2065607;28;100524;-19
2021/08/23 14:22:04;;;;;;;10.77;2.83;;;;;;;;;;2066269;28;99904;-18
2021/08/23 14:23:05;;;;;;;9.75;2.85;;;;;;;;;;2057941;28;99993;-19
2021/08/23 14:24:06;;;;;;;;;;;;;;;;;;2058678;28;100003;-19
2021/08/23 14:25:08;;;;;;;8.68;3.05;;;;;;;;;;2058508;28;100027;-16
2021/08/23 14:26:09;;;;;;;8.18;3.05;;;;;;;;;;2058430;28;99941;-18
2021/08/23 14:27:09;;;;;;;;;;;;;;;;;;2059131;28;99897;-20
2021/08/23 14:28:12;;;;;;;9.02;2.95;;;;;;;;;;2058365;28;99997;-19
2021/08/23 14:29:13;;;;;;;8.07;3.08;;;;;;;;;;2058439;28;99831;-19
2021/08/23 14:30:14;;;;;;;;;;;;;;;;;;2058558;28;99992;-17
2021/08/23 14:31:15;;;;;;;6.85;2.85;;;;;;;;;;2066208;28;100196;-18
2021/08/23 14:32:17;;;;;;;6.93;2.95;;;;;;;;;;2065543;28;100182;-18
2021/08/23 14:33:18;;;;;;;;;;;;;;;;;;2058204;28;100381;-17
2021/08/23 14:34:19;;;;;;;9.38;2.92;;;;;;;;;;2058005;28;100047;-17
2021/08/23 14:35:20;;;;;;;;;;;;;;;;;;2058311;28;100055;-18
2021/08/23 14:36:20;;;;;;;7.00;2.53;;;;;;;;;;2057667;28;99875;-20